Time;durP1;ratioP1;P1;durP2;ratioP2;P2;SDS_P1;SDS_P2;PMS_P1;PMS_P2;Temp;Humidity;BMP_temperature;BMP_pressure;BME280_temperature;BME280_humidity;BME280_pressure;Samples;Min_cycle;Max_cycle;Signal;HPM_P1;HPM_P2
2021/08/30 00:00:19;;;;;;;0.00;0.00;;;23.30;78.40;;;;;;5112782;28;20038;-75
2021/08/30 00:02:45;;;;;;;0.00;0.00;;;23.30;78.30;;;;;;5114091;28;20028;-75
2021/08/30 00:05:11;;;;;;;0.00;0.00;;;23.30;78.40;;;;;;5113913;28;20110;-75
2021/08/30 00:07:36;;;;;;;0.00;0.00;;;23.30;78.40;;;;;;5113943;28;20055;-75
2021/08/30 00:10:03;;;;;;;0.00;0.00;;;23.20;78.50;;;;;;5113830;28;20070;-75
2021/08/30 00:12:29;;;;;;;0.00;0.00;;;23.20;78.60;;;;;;5113983;28;20464;-75
2021/08/30 00:14:55;;;;;;;0.00;0.00;;;23.30;78.80;;;;;;5113197;28;20148;-75
2021/08/30 00:17:20;;;;;;;0.00;0.00;;;23.20;78.90;;;;;;5113819;28;20063;-75
2021/08/30 00:19:46;;;;;;;0.00;0.00;;;23.20;78.90;;;;;;5114308;28;20019;-75
2021/08/30 00:22:12;;;;;;;0.00;0.00;;;23.20;79.00;;;;;;5113801;28;20110;-75
2021/08/30 00:24:37;;;;;;;0.00;0.00;;;23.20;79.20;;;;;;5114218;28;20024;-75
2021/08/30 00:27:03;;;;;;;0.00;0.00;;;23.20;79.20;;;;;;5113683;28;20080;-75
2021/08/30 00:29:29;;;;;;;0.00;0.00;;;23.20;79.50;;;;;;5127880;22;20435;-78
2021/08/30 00:31:55;;;;;;;0.00;0.00;;;23.10;79.50;;;;;;5124126;28;20035;-79
2021/08/30 00:34:22;;;;;;;0.00;0.00;;;23.10;79.70;;;;;;5122008;28;20028;-79
2021/08/30 00:36:48;;;;;;;0.00;0.00;;;23.10;80.00;;;;;;5122100;28;20038;-78
2021/08/30 00:39:21;;;;;;;0.00;0.00;;;23.10;80.40;;;;;;5121447;28;20433;-79
2021/08/30 00:41:49;;;;;;;0.10;0.10;;;23.10;80.80;;;;;;5124233;28;20031;-78
2021/08/30 00:44:15;;;;;;;0.00;0.00;;;23.00;80.80;;;;;;5123865;28;20028;-78
2021/08/30 00:46:40;;;;;;;0.00;0.00;;;23.00;81.30;;;;;;5122804;28;20059;-79
2021/08/30 00:49:06;;;;;;;0.00;0.00;;;23.00;82.00;;;;;;5124087;28;20103;-79
2021/08/30 00:51:33;;;;;;;0.05;0.05;;;23.00;82.70;;;;;;5122655;28;20027;-79
2021/08/30 00:53:59;;;;;;;0.00;0.00;;;23.00;83.90;;;;;;5123769;28;20364;-79
2021/08/30 00:56:26;;;;;;;0.10;0.10;;;23.00;84.40;;;;;;5123102;28;20039;-78
2021/08/30 00:58:53;;;;;;;0.00;0.00;;;23.00;85.30;;;;;;5123668;28;20048;-79
2021/08/30 01:01:18;;;;;;;0.00;0.00;;;23.00;85.80;;;;;;5124893;28;20039;-79
2021/08/30 01:03:44;;;;;;;0.00;0.00;;;23.00;86.30;;;;;;5121564;28;20024;-78
2021/08/30 01:06:38;;;;;;;0.00;0.00;;;23.00;86.60;;;;;;5119927;28;20031;-79
2021/08/30 01:09:30;;;;;;;0.10;0.10;;;23.00;86.60;;;;;;5122879;28;20024;-78
2021/08/30 01:12:19;;;;;;;0.00;0.00;;;23.00;87.00;;;;;;5119920;28;20042;-78
2021/08/30 01:14:50;;;;;;;0.00;0.00;;;23.00;86.90;;;;;;5121058;28;20152;-78
2021/08/30 01:17:18;;;;;;;0.00;0.00;;;23.00;86.80;;;;;;5121843;28;20032;-79
2021/08/30 01:19:51;;;;;;;0.00;0.00;;;23.00;86.90;;;;;;5121167;28;20024;-78
2021/08/30 01:22:19;;;;;;;0.00;0.00;;;23.00;86.80;;;;;;5118838;28;20059;-79
2021/08/30 01:24:46;;;;;;;0.10;0.10;;;22.90;87.10;;;;;;5119265;28;20107;-78
2021/08/30 01:27:12;;;;;;;0.00;0.00;;;22.90;87.30;;;;;;5120315;28;20085;-79
2021/08/30 01:30:13;;;;;;;0.10;0.10;;;22.90;87.80;;;;;;5125485;28;20039;-78
2021/08/30 01:32:51;;;;;;;0.00;0.00;;;22.90;88.40;;;;;;5085911;28;20427;-79
2021/08/30 01:35:19;;;;;;;0.00;0.00;;;22.90;88.90;;;;;;5118898;28;20047;-78
2021/08/30 01:37:48;;;;;;;0.00;0.00;;;22.90;88.90;;;;;;5129517;28;20024;-78
2021/08/30 01:40:16;;;;;;;0.00;0.00;;;22.90;89.40;;;;;;5128336;28;20056;-78
2021/08/30 01:42:45;;;;;;;0.00;0.00;;;22.90;89.90;;;;;;5128505;28;20034;-79
2021/08/30 01:45:15;;;;;;;0.00;0.00;;;22.90;90.60;;;;;;5127712;28;20031;-78
2021/08/30 01:47:43;;;;;;;0.00;0.00;;;22.90;91.00;;;;;;5128199;28;20050;-78
2021/08/30 01:50:11;;;;;;;0.00;0.00;;;22.90;91.10;;;;;;5127848;28;20038;-79
2021/08/30 01:52:39;;;;;;;0.00;0.00;;;22.90;91.60;;;;;;5126821;28;20047;-78
2021/08/30 01:55:15;;;;;;;0.00;0.00;;;22.90;91.60;;;;;;5126822;28;20043;-78
2021/08/30 02:03:14;;;;;;;0.00;0.00;;;22.80;91.70;;;;;;5118073;28;20028;-79
2021/08/30 02:05:41;;;;;;;0.00;0.00;;;22.80;91.90;;;;;;5118665;28;20024;-78
2021/08/30 02:08:07;;;;;;;0.00;0.00;;;22.80;92.00;;;;;;5120926;28;20024;-79
2021/08/30 02:10:33;;;;;;;0.00;0.00;;;22.70;92.10;;;;;;5125278;28;20076;-79
2021/08/30 02:12:58;;;;;;;0.00;0.00;;;22.70;92.30;;;;;;5117413;28;20092;-78
2021/08/30 02:15:25;;;;;;;0.00;0.00;;;22.70;92.90;;;;;;5115041;28;20035;-78
2021/08/30 02:17:57;;;;;;;0.00;0.00;;;22.70;93.00;;;;;;5116404;28;20579;-78
2021/08/30 02:20:28;;;;;;;0.00;0.00;;;22.60;93.20;;;;;;5116179;28;20031;-78
2021/08/30 02:22:56;;;;;;;0.00;0.00;;;22.60;93.10;;;;;;5116867;28;20027;-78
2021/08/30 02:25:22;;;;;;;0.00;0.00;;;22.60;93.20;;;;;;5116366;28;20039;-78
2021/08/30 02:27:48;;;;;;;0.00;0.00;;;22.60;93.20;;;;;;5115027;28;20110;-78
2021/08/30 02:30:28;;;;;;;0.00;0.00;;;22.50;93.30;;;;;;5118958;28;20541;-78
2021/08/30 02:32:58;;;;;;;0.00;0.00;;;22.50;93.30;;;;;;5116476;28;20024;-78
2021/08/30 02:35:29;;;;;;;0.00;0.00;;;22.50;93.50;;;;;;5115630;28;20392;-78
2021/08/30 02:37:57;;;;;;;0.00;0.00;;;22.50;93.60;;;;;;5114746;28;20040;-78
2021/08/30 02:40:27;;;;;;;0.00;0.00;;;22.50;93.40;;;;;;5114811;28;20483;-78
2021/08/30 02:42:54;;;;;;;0.00;0.00;;;22.50;93.20;;;;;;5117313;28;20491;-78
2021/08/30 02:45:22;;;;;;;0.00;0.00;;;22.50;93.20;;;;;;5116749;28;20036;-78
2021/08/30 02:47:49;;;;;;;0.10;0.10;;;22.50;93.00;;;;;;5115178;28;20027;-78
2021/08/30 02:50:15;;;;;;;0.00;0.00;;;22.50;93.00;;;;;;5116713;28;20031;-78
2021/08/30 02:52:43;;;;;;;0.00;0.00;;;22.50;92.80;;;;;;5116016;28;20496;-78
2021/08/30 02:55:09;;;;;;;0.00;0.00;;;22.50;92.70;;;;;;5115621;28;20040;-78
2021/08/30 02:57:36;;;;;;;0.00;0.00;;;22.50;92.50;;;;;;5115856;28;20077;-78
2021/08/30 03:00:04;;;;;;;0.03;0.03;;;22.50;92.30;;;;;;5116785;28;20084;-78
2021/08/30 03:02:30;;;;;;;0.00;0.00;;;22.60;92.10;;;;;;5115858;28;20107;-78
2021/08/30 03:04:57;;;;;;;0.00;0.00;;;22.50;91.90;;;;;;5116586;28;20028;-78
2021/08/30 03:07:31;;;;;;;0.00;0.00;;;22.50;91.70;;;;;;5117618;28;20020;-78
2021/08/30 03:09:58;;;;;;;0.00;0.00;;;22.50;91.50;;;;;;5116674;28;20023;-78
2021/08/30 03:12:26;;;;;;;0.00;0.00;;;22.50;91.40;;;;;;5115885;28;20035;-78
2021/08/30 03:14:55;;;;;;;0.08;0.08;;;22.60;91.30;;;;;;5114812;28;20066;-78
2021/08/30 03:17:23;;;;;;;0.03;0.00;;;22.60;91.10;;;;;;5116805;28;20051;-78
2021/08/30 03:19:52;;;;;;;0.00;0.00;;;22.60;90.90;;;;;;5115457;28;20388;-78
2021/08/30 03:22:19;;;;;;;0.00;0.00;;;22.60;90.80;;;;;;5117489;28;20068;-78
2021/08/30 03:24:45;;;;;;;0.00;0.00;;;22.70;90.60;;;;;;5117224;28;20027;-78
2021/08/30 03:27:14;;;;;;;0.00;0.00;;;22.70;90.30;;;;;;5116507;28;20030;-78
2021/08/30 03:29:41;;;;;;;0.00;0.00;;;22.70;90.10;;;;;;5118312;28;20023;-78
2021/08/30 03:32:12;;;;;;;0.00;0.00;;;22.70;90.00;;;;;;5117345;28;20042;-78
2021/08/30 03:34:39;;;;;;;0.00;0.00;;;22.80;89.90;;;;;;5116062;28;20055;-78
2021/08/30 03:37:06;;;;;;;0.00;0.00;;;22.80;89.50;;;;;;5117028;28;20527;-78
2021/08/30 03:39:32;;;;;;;0.00;0.00;;;22.80;89.20;;;;;;5117288;28;20529;-78
2021/08/30 03:41:59;;;;;;;0.00;0.00;;;22.90;89.10;;;;;;5116294;28;20106;-78
2021/08/30 03:44:26;;;;;;;0.00;0.00;;;22.90;88.90;;;;;;5116170;28;20023;-78
2021/08/30 03:46:53;;;;;;;0.00;0.00;;;22.90;88.70;;;;;;5116178;28;20566;-78
2021/08/30 03:49:19;;;;;;;0.00;0.00;;;23.00;88.20;;;;;;5115658;28;20027;-78
2021/08/30 03:51:47;;;;;;;0.00;0.00;;;23.00;88.00;;;;;;5116282;28;20020;-79
2021/08/30 03:54:13;;;;;;;0.00;0.00;;;23.00;87.80;;;;;;5115977;28;20024;-79
2021/08/30 03:56:39;;;;;;;0.22;0.00;;;23.00;87.60;;;;;;5115869;28;20080;-78
2021/08/30 03:59:05;;;;;;;0.00;0.00;;;23.10;87.60;;;;;;5113156;28;20051;-78
2021/08/30 04:01:32;;;;;;;0.00;0.00;;;23.10;87.50;;;;;;5114750;28;20115;-78
2021/08/30 04:04:00;;;;;;;0.00;0.00;;;23.20;87.60;;;;;;5115256;28;20373;-78
2021/08/30 04:06:31;;;;;;;0.00;0.00;;;23.20;87.50;;;;;;5116208;28;20032;-78
2021/08/30 04:08:58;;;;;;;0.00;0.00;;;23.20;87.30;;;;;;5115067;28;20072;-78
2021/08/30 04:11:25;;;;;;;0.00;0.00;;;23.30;87.00;;;;;;5119943;28;20473;-78
2021/08/30 04:13:52;;;;;;;0.00;0.00;;;23.40;87.00;;;;;;5125779;28;20027;-78
2021/08/30 04:16:19;;;;;;;0.00;0.00;;;23.50;86.50;;;;;;5121546;28;20092;-78
2021/08/30 04:18:45;;;;;;;0.00;0.00;;;23.50;86.10;;;;;;5118354;28;20019;-79
2021/08/30 04:21:11;;;;;;;0.05;0.05;;;23.50;85.50;;;;;;5117486;28;20077;-79
2021/08/30 04:23:37;;;;;;;0.00;0.00;;;23.60;84.90;;;;;;5117583;28;20469;-78
2021/08/30 04:26:02;;;;;;;0.00;0.00;;;23.80;83.90;;;;;;5118085;28;20043;-78
2021/08/30 04:28:28;;;;;;;0.00;0.00;;;23.80;83.30;;;;;;5118569;28;20015;-78
2021/08/30 04:30:54;;;;;;;0.00;0.00;;;24.00;82.40;;;;;;5129643;22;20044;-75
2021/08/30 04:33:21;;;;;;;0.00;0.00;;;24.00;81.70;;;;;;5113891;28;20027;-75
2021/08/30 04:35:47;;;;;;;0.00;0.00;;;24.10;81.30;;;;;;5113801;28;20132;-75
2021/08/30 04:38:13;;;;;;;0.00;0.00;;;24.10;80.70;;;;;;5113756;28;20016;-75
2021/08/30 04:40:39;;;;;;;0.00;0.00;;;24.10;79.60;;;;;;5114153;28;20039;-75
2021/08/30 04:43:08;;;;;;;0.00;0.00;;;24.10;79.60;;;;;;5113562;28;20024;-74
2021/08/30 04:45:35;;;;;;;0.00;0.00;;;24.20;79.30;;;;;;5113615;28;20036;-74
2021/08/30 04:48:01;;;;;;;0.00;0.00;;;24.20;78.60;;;;;;5111534;28;20051;-74
2021/08/30 04:50:27;;;;;;;0.00;0.00;;;24.50;78.50;;;;;;5111623;28;20070;-74
2021/08/30 04:52:52;;;;;;;0.00;0.00;;;24.80;77.90;;;;;;5113145;28;20468;-74
2021/08/30 04:55:18;;;;;;;0.00;0.00;;;25.00;76.90;;;;;;5113283;28;20058;-74
2021/08/30 04:57:44;;;;;;;0.00;0.00;;;25.20;76.00;;;;;;5113477;28;20024;-75
2021/08/30 05:00:10;;;;;;;0.00;0.00;;;25.40;75.30;;;;;;5113391;28;20110;-74
2021/08/30 05:02:36;;;;;;;0.00;0.00;;;25.70;74.30;;;;;;5117122;28;20020;-74
2021/08/30 05:05:01;;;;;;;0.00;0.00;;;25.90;72.50;;;;;;5117347;28;20038;-74
2021/08/30 05:07:27;;;;;;;0.00;0.00;;;26.00;72.00;;;;;;5117319;28;20024;-74
2021/08/30 05:09:52;;;;;;;0.00;0.00;;;26.10;70.90;;;;;;5117203;28;20036;-74
2021/08/30 05:12:21;;;;;;;0.00;0.00;;;26.10;69.80;;;;;;5117321;28;20019;-74
2021/08/30 05:14:47;;;;;;;0.00;0.00;;;26.00;69.50;;;;;;5117211;28;20396;-74
2021/08/30 05:17:12;;;;;;;0.00;0.00;;;25.90;69.20;;;;;;5117098;28;20027;-74
2021/08/30 05:19:38;;;;;;;0.00;0.00;;;26.00;69.30;;;;;;5116324;28;20027;-74
2021/08/30 05:22:04;;;;;;;0.00;0.00;;;26.00;69.60;;;;;;5115563;28;20031;-74
2021/08/30 05:24:29;;;;;;;0.00;0.00;;;26.10;68.90;;;;;;5116127;28;20035;-74
2021/08/30 05:26:55;;;;;;;0.00;0.00;;;26.20;67.10;;;;;;5115712;28;20038;-74
2021/08/30 05:29:20;;;;;;;0.00;0.00;;;25.90;67.00;;;;;;5113242;28;20104;-74
2021/08/30 05:31:46;;;;;;;0.00;0.00;;;25.80;67.50;;;;;;5116285;28;20082;-75
2021/08/30 05:34:12;;;;;;;0.13;0.00;;;25.80;67.40;;;;;;5112175;28;20066;-75
2021/08/30 05:36:37;;;;;;;0.00;0.00;;;25.90;66.60;;;;;;5114751;28;20039;-75
2021/08/30 05:39:03;;;;;;;0.00;0.00;;;25.90;66.20;;;;;;5113357;28;20122;-75
2021/08/30 05:41:29;;;;;;;0.00;0.00;;;25.90;66.30;;;;;;5112552;27;20031;-75
2021/08/30 05:43:55;;;;;;;0.00;0.00;;;25.90;65.80;;;;;;5113272;28;20024;-75
2021/08/30 05:46:21;;;;;;;0.00;0.00;;;25.80;66.40;;;;;;5115493;28;20036;-74
2021/08/30 05:48:49;;;;;;;0.00;0.00;;;25.80;66.30;;;;;;5114292;28;20026;-74
2021/08/30 05:51:15;;;;;;;0.00;0.00;;;25.80;65.90;;;;;;5115652;28;20036;-74
2021/08/30 05:53:41;;;;;;;0.00;0.00;;;25.70;65.70;;;;;;5113407;27;20081;-74
2021/08/30 05:56:08;;;;;;;0.00;0.00;;;25.60;65.90;;;;;;5113832;28;20043;-75
2021/08/30 05:58:35;;;;;;;0.00;0.00;;;25.50;65.70;;;;;;5114361;28;20016;-75
2021/08/30 06:01:02;;;;;;;0.00;0.00;;;25.60;66.20;;;;;;5112512;28;20115;-75
2021/08/30 06:03:28;;;;;;;0.00;0.00;;;25.90;66.60;;;;;;5111659;28;20074;-77
2021/08/30 06:05:53;;;;;;;0.00;0.00;;;26.40;65.60;;;;;;5112390;28;20465;-74
2021/08/30 06:08:19;;;;;;;0.00;0.00;;;26.80;64.50;;;;;;5110073;28;20674;-75
2021/08/30 06:10:45;;;;;;;0.00;0.00;;;27.00;63.90;;;;;;5110588;28;20043;-74
2021/08/30 06:13:10;;;;;;;0.00;0.00;;;27.40;64.10;;;;;;5109113;28;20047;-73
2021/08/30 06:15:36;;;;;;;0.00;0.00;;;27.80;63.80;;;;;;5111110;28;20043;-74
2021/08/30 06:18:02;;;;;;;0.10;0.00;;;28.30;62.80;;;;;;5111749;28;20032;-74
2021/08/30 06:20:28;;;;;;;0.22;0.00;;;28.40;60.80;;;;;;5113194;28;20479;-74
2021/08/30 06:22:53;;;;;;;0.00;0.00;;;28.50;61.30;;;;;;5113430;28;20027;-75
2021/08/30 06:25:19;;;;;;;0.00;0.00;;;29.00;61.00;;;;;;5115090;28;20024;-74
2021/08/30 06:27:45;;;;;;;0.00;0.00;;;29.30;60.10;;;;;;5115863;28;20012;-74
2021/08/30 06:30:11;;;;;;;0.00;0.00;;;29.20;59.40;;;;;;5127017;22;20039;-79
2021/08/30 06:32:37;;;;;;;0.00;0.00;;;29.00;59.50;;;;;;5100982;28;20020;-79
2021/08/30 06:35:03;;;;;;;0.00;0.00;;;28.80;58.30;;;;;;5084901;28;20044;-79
2021/08/30 06:37:28;;;;;;;0.00;0.00;;;28.50;59.20;;;;;;5102935;28;20089;-79
2021/08/30 06:39:54;;;;;;;0.00;0.00;;;28.60;60.00;;;;;;5081935;28;20028;-79
2021/08/30 06:42:20;;;;;;;0.00;0.00;;;28.90;59.60;;;;;;5081889;28;20016;-80
2021/08/30 06:44:46;;;;;;;0.00;0.00;;;29.10;58.90;;;;;;5101135;28;20039;-79
2021/08/30 06:47:11;;;;;;;0.00;0.00;;;29.20;58.30;;;;;;5101837;28;20032;-79
2021/08/30 06:49:37;;;;;;;0.00;0.00;;;29.00;58.50;;;;;;5100967;28;20052;-79
2021/08/30 06:52:03;;;;;;;0.00;0.00;;;28.80;58.60;;;;;;5100232;28;20020;-79
2021/08/30 06:54:29;;;;;;;0.00;0.00;;;28.60;58.80;;;;;;5081667;28;20104;-79
2021/08/30 06:56:55;;;;;;;0.00;0.00;;;28.60;59.60;;;;;;5096176;28;20056;-79
2021/08/30 06:59:20;;;;;;;0.00;0.00;;;28.60;58.60;;;;;;5095499;28;20198;-79
2021/08/30 07:01:46;;;;;;;0.08;0.00;;;28.80;59.30;;;;;;5100159;28;20040;-78
2021/08/30 07:04:12;;;;;;;0.00;0.00;;;29.50;59.00;;;;;;5085426;28;20078;-79
2021/08/30 07:06:37;;;;;;;0.00;0.00;;;30.00;57.30;;;;;;5103470;28;20032;-79
2021/08/30 07:09:03;;;;;;;0.00;0.00;;;30.00;56.40;;;;;;5087002;28;20376;-79
2021/08/30 07:11:31;;;;;;;0.00;0.00;;;29.90;56.40;;;;;;5083127;28;20024;-79
2021/08/30 07:13:57;;;;;;;0.00;0.00;;;29.80;57.00;;;;;;5103596;28;20016;-79
2021/08/30 07:16:23;;;;;;;0.00;0.00;;;30.00;57.50;;;;;;5101527;28;20491;-79
2021/08/30 07:18:49;;;;;;;0.00;0.00;;;30.40;57.40;;;;;;5099562;28;20020;-78
2021/08/30 07:21:14;;;;;;;0.00;0.00;;;30.90;55.50;;;;;;5097539;28;20419;-79
2021/08/30 07:23:40;;;;;;;0.00;0.00;;;31.20;55.40;;;;;;5101372;28;20029;-79
2021/08/30 07:26:06;;;;;;;0.00;0.00;;;31.70;55.30;;;;;;5102642;28;20035;-79
2021/08/30 07:28:32;;;;;;;0.00;0.00;;;32.10;54.20;;;;;;5101763;28;20028;-79
2021/08/30 07:30:58;;;;;;;0.00;0.00;;;31.90;53.50;;;;;;5104559;28;20074;-79
2021/08/30 07:33:24;;;;;;;0.00;0.00;;;32.20;53.90;;;;;;5085604;28;20024;-79
2021/08/30 07:35:49;;;;;;;0.00;0.00;;;32.50;52.80;;;;;;5083567;28;20044;-79
2021/08/30 07:38:15;;;;;;;0.00;0.00;;;32.70;52.70;;;;;;5083318;28;20404;-79
2021/08/30 07:40:41;;;;;;;0.00;0.00;;;32.70;52.60;;;;;;5102554;28;20032;-80
2021/08/30 07:43:06;;;;;;;0.00;0.00;;;32.60;51.60;;;;;;5103555;28;20054;-77
2021/08/30 07:45:32;;;;;;;0.00;0.00;;;32.40;52.20;;;;;;5099015;28;20043;-80
2021/08/30 07:47:58;;;;;;;0.00;0.00;;;31.90;52.00;;;;;;5100832;28;20024;-80
2021/08/30 07:50:23;;;;;;;0.00;0.00;;;31.50;53.00;;;;;;5100692;28;20481;-80
2021/08/30 07:52:49;;;;;;;0.00;0.00;;;31.30;53.50;;;;;;5100391;28;20017;-80
2021/08/30 07:55:16;;;;;;;0.00;0.00;;;31.20;53.70;;;;;;5082204;28;20394;-80
2021/08/30 07:57:42;;;;;;;0.00;0.00;;;31.00;54.00;;;;;;5102249;28;20020;-80
2021/08/30 08:00:09;;;;;;;0.00;0.00;;;31.00;54.20;;;;;;5102185;28;20059;-80
2021/08/30 08:02:34;;;;;;;0.00;0.00;;;31.10;54.30;;;;;;5081346;28;20027;-80
2021/08/30 08:05:00;;;;;;;0.00;0.00;;;31.10;54.10;;;;;;5083324;28;20393;-80
2021/08/30 08:07:26;;;;;;;0.00;0.00;;;31.10;54.30;;;;;;5085633;28;20035;-80
2021/08/30 08:09:51;;;;;;;0.00;0.00;;;31.20;54.20;;;;;;5086434;28;20036;-80
2021/08/30 08:12:18;;;;;;;0.00;0.00;;;31.30;54.30;;;;;;5084051;28;20016;-80
2021/08/30 08:14:44;;;;;;;0.00;0.00;;;31.20;54.20;;;;;;5101912;28;20028;-80
2021/08/30 08:17:10;;;;;;;0.00;0.00;;;31.10;54.40;;;;;;5083997;28;20024;-79
2021/08/30 08:19:35;;;;;;;0.00;0.00;;;31.00;54.60;;;;;;5101380;28;20024;-80
2021/08/30 08:22:02;;;;;;;0.00;0.00;;;31.40;54.50;;;;;;5102701;28;20591;-80
2021/08/30 08:24:28;;;;;;;0.00;0.00;;;31.80;54.20;;;;;;5103089;28;20024;-80
2021/08/30 08:26:55;;;;;;;0.00;0.00;;;31.80;54.40;;;;;;5084531;28;20559;-81
2021/08/30 08:29:22;;;;;;;0.00;0.00;;;31.80;55.10;;;;;;5098096;28;20020;-80
2021/08/30 08:31:48;;;;;;;0.00;0.00;;;32.00;55.90;;;;;;5097179;28;20109;-80
2021/08/30 08:34:14;;;;;;;0.00;0.00;;;32.40;55.90;;;;;;5095752;28;20451;-80
2021/08/30 08:36:40;;;;;;;0.00;0.00;;;32.50;55.60;;;;;;5079149;28;20423;-80
2021/08/30 08:39:07;;;;;;;0.00;0.00;;;32.50;55.70;;;;;;5078136;28;20020;-80
2021/08/30 08:41:36;;;;;;;0.00;0.00;;;32.70;55.90;;;;;;5081009;28;20040;-80
2021/08/30 08:44:04;;;;;;;0.00;0.00;;;32.70;55.20;;;;;;5082373;28;20440;-79
2021/08/30 08:46:31;;;;;;;0.00;0.00;;;32.90;55.30;;;;;;5084275;28;20036;-80
2021/08/30 08:48:57;;;;;;;0.00;0.00;;;33.40;55.70;;;;;;5081131;28;20044;-80
2021/08/30 08:51:24;;;;;;;0.00;0.00;;;33.90;55.00;;;;;;5083774;28;20028;-80
2021/08/30 08:53:50;;;;;;;0.00;0.00;;;34.20;53.90;;;;;;5083820;28;20024;-80
2021/08/30 08:56:24;;;;;;;0.00;0.00;;;34.10;53.00;;;;;;5104277;28;20096;-81
2021/08/30 08:58:49;;;;;;;0.00;0.00;;;33.70;53.30;;;;;;5102479;28;20346;-79
2021/08/30 09:01:15;;;;;;;0.00;0.00;;;33.20;54.00;;;;;;5096968;28;20058;-80
2021/08/30 09:03:45;;;;;;;0.00;0.00;;;32.80;54.80;;;;;;5096138;28;20020;-79
2021/08/30 09:06:12;;;;;;;0.10;0.10;;;32.70;55.20;;;;;;5098264;28;20047;-80
2021/08/30 09:08:43;;;;;;;0.00;0.00;;;32.50;54.80;;;;;;5094916;28;20472;-79
2021/08/30 09:11:21;;;;;;;0.00;0.00;;;32.80;55.00;;;;;;5094966;28;20100;-79
2021/08/30 09:13:51;;;;;;;0.00;0.00;;;33.00;54.20;;;;;;5078381;28;20452;-79
2021/08/30 09:16:19;;;;;;;0.08;0.08;;;33.50;54.20;;;;;;5079809;28;20351;-77
2021/08/30 09:18:44;;;;;;;0.00;0.00;;;33.80;53.10;;;;;;5094765;28;20024;-79
2021/08/30 09:21:11;;;;;;;0.00;0.00;;;33.90;52.90;;;;;;5075880;28;20447;-79
2021/08/30 09:23:40;;;;;;;0.00;0.00;;;34.10;53.10;;;;;;5074297;28;20252;-79
2021/08/30 09:26:13;;;;;;;0.08;0.08;;;34.50;53.30;;;;;;5073987;28;20035;-79
2021/08/30 09:28:39;;;;;;;0.03;0.03;;;34.80;52.00;;;;;;5091409;28;20103;-78
2021/08/30 09:31:05;;;;;;;0.10;0.10;;;34.70;51.70;;;;;;5095590;28;20036;-77
2021/08/30 09:33:35;;;;;;;0.00;0.00;;;34.70;51.10;;;;;;5093574;28;20020;-78
2021/08/30 09:36:01;;;;;;;0.00;0.00;;;34.60;51.20;;;;;;5093232;28;20043;-78
2021/08/30 09:38:35;;;;;;;0.00;0.00;;;34.60;50.70;;;;;;5091266;28;20020;-79
2021/08/30 09:41:09;;;;;;;0.00;0.00;;;34.30;50.90;;;;;;5072432;28;20056;-79
2021/08/30 09:43:35;;;;;;;0.10;0.10;;;34.60;51.20;;;;;;5071318;28;20119;-78
2021/08/30 09:46:04;;;;;;;0.00;0.00;;;34.90;50.30;;;;;;5089491;28;20125;-79
2021/08/30 09:48:31;;;;;;;0.03;0.03;;;34.90;50.00;;;;;;5072726;28;20342;-79
2021/08/30 09:51:02;;;;;;;0.00;0.00;;;35.30;50.20;;;;;;5072091;28;20036;-79
2021/08/30 09:53:29;;;;;;;0.05;0.05;;;35.70;49.60;;;;;;5090188;28;20152;-80
2021/08/30 09:55:57;;;;;;;0.00;0.00;;;36.00;49.00;;;;;;5072258;28;20047;-79
2021/08/30 09:58:24;;;;;;;0.00;0.00;;;35.50;48.70;;;;;;5072454;28;20427;-79
2021/08/30 10:00:52;;;;;;;0.00;0.00;;;34.80;49.70;;;;;;5091255;28;20126;-78
2021/08/30 10:03:18;;;;;;;0.00;0.00;;;34.50;51.00;;;;;;5090842;28;20020;-79
2021/08/30 10:05:45;;;;;;;0.10;0.10;;;35.00;51.80;;;;;;5068788;28;20126;-78
2021/08/30 10:08:15;;;;;;;0.00;0.00;;;35.40;50.20;;;;;;5087218;28;20059;-79
2021/08/30 10:10:41;;;;;;;0.00;0.00;;;35.60;49.40;;;;;;5089616;28;20538;-77
2021/08/30 10:13:10;;;;;;;0.00;0.00;;;35.80;49.10;;;;;;5073136;28;20028;-76
2021/08/30 10:15:36;;;;;;;0.10;0.10;;;35.60;48.40;;;;;;5090470;28;20071;-76
2021/08/30 10:18:02;;;;;;;0.00;0.00;;;35.50;49.30;;;;;;5072603;28;20320;-76
2021/08/30 10:20:34;;;;;;;0.05;0.05;;;35.80;49.20;;;;;;5088016;28;20032;-76
2021/08/30 10:23:08;;;;;;;0.00;0.00;;;36.20;49.10;;;;;;5070522;28;20068;-76
2021/08/30 10:25:39;;;;;;;0.05;0.05;;;36.70;48.70;;;;;;5088651;28;20028;-77
2021/08/30 10:28:13;;;;;;;0.10;0.10;;;37.00;47.20;;;;;;5088677;28;20109;-75
2021/08/30 10:30:51;;;;;;;0.00;0.00;;;37.00;47.80;;;;;;5071907;28;20054;-76
2021/08/30 10:33:22;;;;;;;0.00;0.00;;;37.10;47.40;;;;;;5088502;28;20016;-77
2021/08/30 10:35:48;;;;;;;0.00;0.00;;;37.00;46.80;;;;;;5086430;28;20047;-77
2021/08/30 10:38:19;;;;;;;0.00;0.00;;;36.70;46.70;;;;;;5086195;28;20214;-77
2021/08/30 10:40:53;;;;;;;0.00;0.00;;;36.10;46.60;;;;;;5088095;28;20040;-77
2021/08/30 10:43:28;;;;;;;0.00;0.00;;;35.00;47.70;;;;;;5088637;28;20024;-79
2021/08/30 10:45:58;;;;;;;0.00;0.00;;;34.40;48.60;;;;;;5092791;28;20072;-79
2021/08/30 10:48:41;;;;;;;0.00;0.00;;;33.90;49.00;;;;;;5092191;28;20020;-79
2021/08/30 10:51:25;;;;;;;0.00;0.00;;;33.30;49.60;;;;;;5091863;28;20107;-79
2021/08/30 10:53:55;;;;;;;;;;;32.80;50.50;;;;;;5076297;28;20448;-79
2021/08/30 10:56:27;;;;;;;0.05;0.05;;;32.40;51.30;;;;;;5074565;28;19920;-79
2021/08/30 10:58:53;;;;;;;0.00;0.00;;;32.40;51.50;;;;;;5092979;28;20385;-80
2021/08/30 11:01:19;;;;;;;0.00;0.00;;;32.90;52.40;;;;;;5094888;28;20426;-79
2021/08/30 11:03:56;;;;;;;0.00;0.00;;;33.30;50.90;;;;;;5073430;28;20024;-78
2021/08/30 11:06:23;;;;;;;0.00;0.00;;;33.40;50.80;;;;;;5074360;28;20090;-77
2021/08/30 11:08:49;;;;;;;0.00;0.00;;;33.30;50.60;;;;;;5092103;28;20034;-76
2021/08/30 11:11:20;;;;;;;0.00;0.00;;;33.20;50.20;;;;;;5073297;28;20524;-76
2021/08/30 11:14:07;;;;;;;0.00;0.00;;;33.30;50.50;;;;;;5091206;28;20123;-79
2021/08/30 11:16:34;;;;;;;0.00;0.00;;;33.80;49.60;;;;;;5091873;28;20044;-79
2021/08/30 11:19:03;;;;;;;0.00;0.00;;;33.80;49.10;;;;;;5069872;28;20069;-78
2021/08/30 11:21:51;;;;;;;0.00;0.00;;;33.50;49.20;;;;;;5086865;28;20024;-78
2021/08/30 11:24:24;;;;;;;0.00;0.00;;;33.00;49.90;;;;;;5085981;28;20016;-78
2021/08/30 11:26:50;;;;;;;;;;;32.80;50.40;;;;;;5086843;28;20028;-79
2021/08/30 11:29:16;;;;;;;0.00;0.00;;;32.30;51.10;;;;;;5068147;28;20309;-78
2021/08/30 11:31:42;;;;;;;0.00;0.00;;;32.00;51.50;;;;;;5095251;22;20040;-75
2021/08/30 11:34:09;;;;;;;0.00;0.00;;;31.80;51.90;;;;;;5105946;28;20474;-75
2021/08/30 11:36:50;;;;;;;0.10;0.00;;;31.80;52.40;;;;;;5106236;28;20575;-76
2021/08/30 11:39:17;;;;;;;0.00;0.00;;;32.00;52.70;;;;;;5106256;28;20020;-75
2021/08/30 11:41:45;;;;;;;0.00;0.00;;;32.30;52.30;;;;;;5107264;28;20039;-75
2021/08/30 11:44:13;;;;;;;0.00;0.00;;;32.50;51.80;;;;;;5108431;28;20084;-75
2021/08/30 11:46:47;;;;;;;0.00;0.00;;;33.00;51.70;;;;;;5109559;28;20039;-75
2021/08/30 11:49:14;;;;;;;0.00;0.00;;;33.70;51.20;;;;;;5110805;28;20051;-75
2021/08/30 11:51:46;;;;;;;0.00;0.00;;;34.10;50.00;;;;;;5106431;28;20034;-75
2021/08/30 11:54:17;;;;;;;0.00;0.00;;;34.30;49.20;;;;;;5108803;28;20065;-74
2021/08/30 11:57:06;;;;;;;0.00;0.00;;;34.40;49.20;;;;;;5108834;28;20027;-75
2021/08/30 11:59:39;;;;;;;0.00;0.00;;;34.60;48.90;;;;;;5103774;28;20028;-76
2021/08/30 12:02:07;;;;;;;0.00;0.00;;;34.80;49.00;;;;;;5109198;28;20110;-75
2021/08/30 12:04:35;;;;;;;0.00;0.00;;;34.90;48.90;;;;;;5111286;28;20111;-75
2021/08/30 12:07:09;;;;;;;0.00;0.00;;;35.40;48.50;;;;;;5111243;28;20059;-75
2021/08/30 12:09:50;;;;;;;0.00;0.00;;;35.80;48.10;;;;;;5112429;28;20384;-75
2021/08/30 12:12:33;;;;;;;0.00;0.00;;;36.20;47.70;;;;;;5112502;28;20445;-75
2021/08/30 12:15:05;;;;;;;0.00;0.00;;;36.60;46.70;;;;;;5112101;28;20040;-75
2021/08/30 12:17:36;;;;;;;0.00;0.00;;;37.00;46.70;;;;;;5110229;28;20095;-77
2021/08/30 12:20:11;;;;;;;0.00;0.00;;;36.90;46.10;;;;;;5112460;28;20057;-75
2021/08/30 12:22:46;;;;;;;0.00;0.00;;;36.40;45.80;;;;;;5111980;28;20034;-74
2021/08/30 12:25:17;;;;;;;0.00;0.00;;;35.90;46.50;;;;;;5113446;28;20031;-75
2021/08/30 12:27:44;;;;;;;0.00;0.00;;;36.00;46.90;;;;;;5112313;28;20073;-74
2021/08/30 12:30:18;;;;;;;0.00;0.00;;;36.40;46.70;;;;;;5111232;28;20736;-75
2021/08/30 12:32:50;;;;;;;0.00;0.00;;;36.90;46.00;;;;;;5111980;28;20027;-75
2021/08/30 12:35:20;;;;;;;0.00;0.00;;;37.20;46.00;;;;;;5110998;28;20053;-75
2021/08/30 12:37:47;;;;;;;0.00;0.00;;;37.30;45.50;;;;;;5112110;28;20882;-76
2021/08/30 12:40:14;;;;;;;0.00;0.00;;;37.20;45.40;;;;;;5111674;28;20039;-75
2021/08/30 12:42:40;;;;;;;0.00;0.00;;;37.00;45.60;;;;;;5109785;28;20027;-75
2021/08/30 12:45:06;;;;;;;0.00;0.00;;;36.80;46.10;;;;;;5111374;28;20030;-76
2021/08/30 12:47:32;;;;;;;0.10;0.10;;;37.00;46.20;;;;;;5108908;28;20541;-75
2021/08/30 12:49:58;;;;;;;0.00;0.00;;;37.50;46.10;;;;;;5110240;28;20115;-75
2021/08/30 12:52:23;;;;;;;0.00;0.00;;;37.50;45.00;;;;;;5110679;28;20043;-75
2021/08/30 12:54:49;;;;;;;0.00;0.00;;;37.00;45.30;;;;;;5111670;28;20410;-76
2021/08/30 12:57:15;;;;;;;0.00;0.00;;;36.30;45.80;;;;;;5113907;28;20438;-76